SRD72 KPDK-KCHA
Flight info
| Callsign | SRD72 |
|---|---|
| Flight time | N/A |
| Altitude | 2000 |
| Route | KPDK DCT KCHA |
| Aircraft | C172/L-VGDW/C |
Departure
| Time | 2026-04-26 15:39 |
|---|---|
| Airport | DeKalb Peachtree Airport (KPDK) |
Arrival
| Time | N/A |
|---|---|
| Airport | Chattanooga Metropolitan Airport (Lovell Field) (KCHA) |
| Time | Latitude | Longitude | Altitude | Speed | Heading |
|---|---|---|---|---|---|
| 2026-04-26 14:54 | 33.88392 | -84.30364 | 990 ft | 0 kts | 270° |
| 2026-04-26 15:34 | 33.88392 | -84.30386 | 990 ft | 10 kts | 265° |
| 2026-04-26 15:34 | 33.88362 | -84.30428 | 990 ft | 12 kts | 186° |
| 2026-04-26 15:34 | 33.88230 | -84.30423 | 986 ft | 24 kts | 162° |
| 2026-04-26 15:34 | 33.88156 | -84.30389 | 984 ft | 0 kts | 159° |
| 2026-04-26 15:35 | 33.88134 | -84.30388 | 984 ft | 6 kts | 204° |
| 2026-04-26 15:35 | 33.88029 | -84.30360 | 982 ft | 27 kts | 159° |
| 2026-04-26 15:36 | 33.87845 | -84.30267 | 979 ft | 29 kts | 158° |
| 2026-04-26 15:36 | 33.87652 | -84.30170 | 978 ft | 30 kts | 158° |
| 2026-04-26 15:36 | 33.87468 | -84.30078 | 975 ft | 25 kts | 159° |
| 2026-04-26 15:36 | 33.87343 | -84.30017 | 972 ft | 11 kts | 155° |
| 2026-04-26 15:37 | 33.87282 | -84.30012 | 970 ft | 5 kts | 235° |
| 2026-04-26 15:37 | 33.87273 | -84.30060 | 972 ft | 4 kts | 309° |
| 2026-04-26 15:37 | 33.87323 | -84.30079 | 974 ft | 14 kts | 338° |
| 2026-04-26 15:37 | 33.87336 | -84.30085 | 975 ft | 0 kts | 339° |
| 2026-04-26 15:38 | 33.87574 | -84.30202 | 979 ft | 65 kts | 338° |
| 2026-04-26 15:38 | 33.88053 | -84.30441 | 1132 ft | 81 kts | 336° |
| 2026-04-26 15:38 | 33.88550 | -84.30709 | 1422 ft | 78 kts | 334° |
| 2026-04-26 15:39 | 33.89051 | -84.31046 | 1657 ft | 82 kts | 326° |
| 2026-04-26 15:39 | 33.89510 | -84.31432 | 1884 ft | 87 kts | 326° |
| 2026-04-26 15:39 | 33.90000 | -84.31832 | 2133 ft | 85 kts | 324° |
| 2026-04-26 15:39 | 33.90163 | -84.31982 | 2180 ft | 90 kts | 321° |
| 2026-04-26 15:40 | 33.90911 | -84.32899 | 2404 ft | 109 kts | 317° |
| 2026-04-26 15:40 | 33.91533 | -84.33540 | 2373 ft | 124 kts | 321° |
| 2026-04-26 15:40 | 33.92235 | -84.34197 | 2366 ft | 130 kts | 323° |
| 2026-04-26 15:40 | 33.92969 | -84.34840 | 2362 ft | 127 kts | 325° |
| 2026-04-26 15:41 | 33.93669 | -84.35424 | 2360 ft | 119 kts | 326° |
| 2026-04-26 15:41 | 33.94340 | -84.35970 | 2361 ft | 115 kts | 326° |
| 2026-04-26 15:41 | 33.95003 | -84.36498 | 2362 ft | 113 kts | 327° |
| 2026-04-26 15:41 | 33.95655 | -84.37012 | 2362 ft | 111 kts | 327° |
| 2026-04-26 15:42 | 33.96304 | -84.37518 | 2363 ft | 110 kts | 327° |
| 2026-04-26 15:42 | 33.96943 | -84.38013 | 2363 ft | 110 kts | 327° |
| 2026-04-26 15:42 | 33.97587 | -84.38510 | 2363 ft | 110 kts | 327° |
| 2026-04-26 15:42 | 33.98232 | -84.39005 | 2363 ft | 110 kts | 328° |
| 2026-04-26 15:43 | 33.98879 | -84.39502 | 2363 ft | 109 kts | 328° |
| 2026-04-26 15:43 | 33.99526 | -84.39997 | 2363 ft | 109 kts | 328° |
| 2026-04-26 15:43 | 34.00804 | -84.40973 | 2363 ft | 109 kts | 328° |
| 2026-04-26 15:44 | 34.01451 | -84.41466 | 2363 ft | 109 kts | 328° |
| 2026-04-26 15:44 | 34.02742 | -84.42451 | 2363 ft | 109 kts | 328° |
| 2026-04-26 15:44 | 34.03386 | -84.42943 | 2363 ft | 109 kts | 328° |
| 2026-04-26 15:45 | 34.04673 | -84.43924 | 2363 ft | 109 kts | 328° |
| 2026-04-26 15:45 | 34.05318 | -84.44416 | 2363 ft | 109 kts | 328° |
| 2026-04-26 15:46 | 34.06598 | -84.45393 | 2363 ft | 109 kts | 328° |
| 2026-04-26 15:46 | 34.07242 | -84.45884 | 2371 ft | 109 kts | 328° |
| 2026-04-26 15:46 | 34.07875 | -84.46367 | 2421 ft | 109 kts | 328° |
| 2026-04-26 15:46 | 34.08091 | -84.46532 | 2439 ft | 110 kts | 328° |
| 2026-04-26 15:47 | 34.09190 | -84.47373 | 2527 ft | 113 kts | 328° |
| 2026-04-26 15:47 | 34.10532 | -84.48398 | 2628 ft | 115 kts | 328° |
| 2026-04-26 15:47 | 34.11206 | -84.48913 | 2678 ft | 115 kts | 328° |
| 2026-04-26 15:48 | 34.11888 | -84.49433 | 2728 ft | 115 kts | 328° |
| 2026-04-26 15:48 | 34.12568 | -84.49953 | 2778 ft | 115 kts | 328° |
| 2026-04-26 15:48 | 34.13242 | -84.50468 | 2828 ft | 115 kts | 328° |
| 2026-04-26 15:48 | 34.13921 | -84.50987 | 2877 ft | 115 kts | 328° |
| 2026-04-26 15:49 | 34.14609 | -84.51513 | 2928 ft | 115 kts | 328° |
| 2026-04-26 15:49 | 34.15283 | -84.52028 | 2978 ft | 115 kts | 328° |
| 2026-04-26 15:49 | 34.15958 | -84.52544 | 3027 ft | 115 kts | 328° |
| 2026-04-26 15:49 | 34.16639 | -84.53065 | 3077 ft | 115 kts | 328° |
| 2026-04-26 15:50 | 34.17320 | -84.53586 | 3128 ft | 115 kts | 328° |
| 2026-04-26 15:50 | 34.17995 | -84.54102 | 3177 ft | 115 kts | 328° |
| 2026-04-26 15:50 | 34.18671 | -84.54620 | 3227 ft | 115 kts | 328° |
| 2026-04-26 15:50 | 34.19342 | -84.55133 | 3277 ft | 115 kts | 328° |
| 2026-04-26 15:51 | 34.20024 | -84.55656 | 3327 ft | 115 kts | 328° |
| 2026-04-26 15:51 | 34.20690 | -84.56166 | 3376 ft | 115 kts | 328° |
| 2026-04-26 15:51 | 34.21376 | -84.56691 | 3398 ft | 117 kts | 328° |
| 2026-04-26 15:51 | 34.22069 | -84.57222 | 3400 ft | 119 kts | 328° |
| 2026-04-26 15:52 | 34.22774 | -84.57762 | 3400 ft | 121 kts | 328° |
| 2026-04-26 15:52 | 34.23484 | -84.58305 | 3400 ft | 121 kts | 328° |
| 2026-04-26 15:52 | 34.24196 | -84.58851 | 3400 ft | 122 kts | 328° |
| 2026-04-26 15:52 | 34.24679 | -84.59221 | 3400 ft | 122 kts | 328° |
| 2026-04-26 15:53 | 34.25626 | -84.59946 | 3400 ft | 122 kts | 328° |
| 2026-04-26 15:53 | 34.26345 | -84.60498 | 3400 ft | 122 kts | 328° |
| 2026-04-26 15:53 | 34.27063 | -84.61049 | 3400 ft | 122 kts | 328° |
| 2026-04-26 15:53 | 34.27782 | -84.61601 | 3400 ft | 122 kts | 328° |
| 2026-04-26 15:54 | 34.28499 | -84.62151 | 3400 ft | 122 kts | 328° |
| 2026-04-26 15:54 | 34.29214 | -84.62700 | 3400 ft | 122 kts | 328° |
| 2026-04-26 15:54 | 34.29924 | -84.63245 | 3400 ft | 122 kts | 328° |
| 2026-04-26 15:54 | 34.30642 | -84.63796 | 3400 ft | 122 kts | 328° |
| 2026-04-26 15:55 | 34.31359 | -84.64347 | 3399 ft | 122 kts | 328° |
| 2026-04-26 15:55 | 34.32069 | -84.64892 | 3399 ft | 122 kts | 328° |
| 2026-04-26 15:55 | 34.32790 | -84.65447 | 3400 ft | 122 kts | 327° |
| 2026-04-26 15:55 | 34.33507 | -84.65997 | 3399 ft | 122 kts | 327° |
| 2026-04-26 15:56 | 34.34222 | -84.66547 | 3399 ft | 122 kts | 327° |
| 2026-04-26 15:56 | 34.34944 | -84.67102 | 3399 ft | 122 kts | 327° |
| 2026-04-26 15:56 | 34.35654 | -84.67648 | 3400 ft | 122 kts | 327° |
| 2026-04-26 15:56 | 34.36373 | -84.68201 | 3399 ft | 122 kts | 327° |
| 2026-04-26 15:57 | 34.37083 | -84.68748 | 3400 ft | 122 kts | 327° |
| 2026-04-26 15:57 | 34.37803 | -84.69302 | 3399 ft | 122 kts | 327° |
| 2026-04-26 15:57 | 34.38519 | -84.69852 | 3399 ft | 122 kts | 327° |
| 2026-04-26 15:57 | 34.39003 | -84.70225 | 3399 ft | 122 kts | 327° |
| 2026-04-26 15:58 | 34.39949 | -84.70953 | 3399 ft | 122 kts | 327° |
| 2026-04-26 15:58 | 34.40668 | -84.71507 | 3400 ft | 122 kts | 327° |
| 2026-04-26 15:58 | 34.41389 | -84.72062 | 3400 ft | 122 kts | 327° |
| 2026-04-26 15:58 | 34.42098 | -84.72609 | 3399 ft | 122 kts | 327° |
| 2026-04-26 15:59 | 34.42813 | -84.73160 | 3399 ft | 122 kts | 327° |